Archival Weather

Republic

Farmingdale, New York (KFRG)

Report from: Friday, February 2, 2024 2:36 AM EST
Current time: Monday, June 17, 2024 4:00 AM EDT

Current weather – Weather history – Daily summaries
Weather forecast

Present weatherMist
Temperature5.0°C (41.0°F)
Dew point3.3°C (37.9°F)
Winds Calm
Visibility2.5 mi. (4 km)
Clouds Ceiling: Overcast 2,700 ft. (823 m)
Altimeter29.87 in.Hg (1012 mB)
Precipitiation0.05 in. (1 mm)
Relative humidity89 %
Density altitude-1,035 ft. (-316 m)
Remarks Fully automated report
Automated weather observing station without precipitation discriminator
Flight conditions Instrument Meteorological Conditions
Raw dataKFRG 020736Z AUTO 00000KT 2 1/2SM BR OVC027 05/03 A2987 RMK AO1 P0005 T00500033
An error has occurred. This application may no longer respond until reloaded. Reload 🗙